aviador You're here:

KMLT Decoded Metar

MILLINOCKET in ME, USA
Report Time2017-06-28 11:53:00
UTC Time2017-06-28 12:08:22
Flight Rules vfr VFR
Wind290° at 05 kt
W.Decomp.*RWY 29: 4.8 kt HW 1.5 kt RCW
RWY 34: 4.2 kt HW 2.7 kt LCW
W.Rank290° ranks 2
Current wind is below 290° avg. (8.1)
Visibility9999 m
Phenomena:N/A
Clouds:N/A
Expected CloudBase > 1,200 ft AGL from Temp-Dew spread
CeilingNone
Temp16°C (ISA +2)
Dew Point13°C (83% RH)
AAT15.2°C
QNH1013 hPa
Density Alt817 ft
Elevation404 ft
Report Wrong Elevation
Raw Report
METAR KMLT 281153Z AUTO 29005KT 10SM CLR 16/13 A2992 RMK AO2 SLP138
60000 70110 T01560133 10156 20128 53005 TSNO=

Extra information for KMLT:More info

Metar Taf Metar & Taf Last 4 Metars F.Rules Stats Wind Profile Meteogram Temp Stats Airport Information Weather charts Add Link Nearby VenuesMetar ALERT Operation Metar Decoded Social comments

AIRNAV info for KMLT